Time;durP1;ratioP1;P1;durP2;ratioP2;P2;SDS_P1;SDS_P2;PMS_P1;PMS_P2;Temp;Humidity;BMP_temperature;BMP_pressure;BME280_temperature;BME280_humidity;BME280_pressure;Samples;Min_cycle;Max_cycle;Signal;HPM_P1;HPM_P2
2023/12/28 00:00:36;;;;;;;3.83;2.73;;;;;;;;;;5033981;28;20834;-79
2023/12/28 00:03:03;;;;;;;4.13;3.10;;;;;;;;;;5033382;28;20868;-78
2023/12/28 00:05:29;;;;;;;3.50;3.20;;;;;;;;;;5033300;28;20548;-78
2023/12/28 00:07:57;;;;;;;3.60;2.93;;;;;;;;;;5033103;28;20487;-78
2023/12/28 00:10:24;;;;;;;5.37;3.57;;;;;;;;;;5032902;28;20480;-78
2023/12/28 00:12:51;;;;;;;4.00;3.13;;;;;;;;;;5032768;28;20503;-78
2023/12/28 00:15:17;;;;;;;6.17;3.77;;;;;;;;;;5033196;28;20882;-78
2023/12/28 00:17:43;;;;;;;4.93;3.63;;;;;;;;;;5032519;28;21040;-78
2023/12/28 00:20:10;;;;;;;7.00;4.17;;;;;;;;;;5033869;28;20532;-78
2023/12/28 00:22:37;;;;;;;6.77;4.90;;;;;;;;;;5036443;28;20492;-78
2023/12/28 00:25:06;;;;;;;5.10;3.00;;;;;;;;;;5036731;28;20848;-78
2023/12/28 00:27:33;;;;;;;4.30;2.80;;;;;;;;;;5036234;28;20540;-78
2023/12/28 00:30:00;;;;;;;6.10;3.50;;;;;;;;;;5036882;28;20480;-78
2023/12/28 00:32:26;;;;;;;5.00;3.20;;;;;;;;;;5036429;28;21013;-78
2023/12/28 00:34:53;;;;;;;3.67;3.10;;;;;;;;;;5036535;28;20559;-78
2023/12/28 00:37:19;;;;;;;4.43;3.00;;;;;;;;;;5036192;28;20515;-78
2023/12/28 00:39:46;;;;;;;6.47;3.50;;;;;;;;;;5036523;28;20519;-78
2023/12/28 00:42:14;;;;;;;3.97;3.57;;;;;;;;;;5036234;28;20464;-78
2023/12/28 00:44:41;;;;;;;4.67;3.07;;;;;;;;;;5036317;28;21050;-78
2023/12/28 00:47:07;;;;;;;4.93;3.90;;;;;;;;;;5036267;28;20518;-78
2023/12/28 00:49:34;;;;;;;7.03;4.23;;;;;;;;;;5036487;28;20567;-79
2023/12/28 00:52:00;;;;;;;6.77;3.80;;;;;;;;;;5035783;28;21057;-78
2023/12/28 00:54:27;;;;;;;11.97;4.10;;;;;;;;;;5036206;28;20499;-78
2023/12/28 00:56:53;;;;;;;4.70;3.33;;;;;;;;;;5036061;28;20556;-78
2023/12/28 00:59:21;;;;;;;4.20;3.67;;;;;;;;;;5036088;28;20896;-78
2023/12/28 01:01:47;;;;;;;5.30;3.50;;;;;;;;;;5035983;28;20560;-78
2023/12/28 01:04:14;;;;;;;5.23;3.93;;;;;;;;;;5035861;28;20548;-78
2023/12/28 01:06:41;;;;;;;3.77;3.40;;;;;;;;;;5035545;28;20912;-78
2023/12/28 01:09:07;;;;;;;5.73;3.23;;;;;;;;;;5036074;28;20572;-78
2023/12/28 01:11:34;;;;;;;4.00;2.90;;;;;;;;;;5035549;28;20553;-78
2023/12/28 01:14:00;;;;;;;3.83;2.80;;;;;;;;;;5036036;28;20441;-78
2023/12/28 01:16:28;;;;;;;4.43;3.47;;;;;;;;;;5035436;28;20844;-78
2023/12/28 01:18:55;;;;;;;5.40;3.80;;;;;;;;;;5036071;28;20491;-78
2023/12/28 01:21:21;;;;;;;5.47;3.77;;;;;;;;;;5035285;28;21026;-77
2023/12/28 01:23:48;;;;;;;6.90;3.60;;;;;;;;;;5035806;28;20475;-78
2023/12/28 01:26:15;;;;;;;5.60;3.33;;;;;;;;;;5035270;28;20496;-80
2023/12/28 01:28:41;;;;;;;3.57;3.27;;;;;;;;;;5035642;28;20441;-78
2023/12/28 01:31:08;;;;;;;3.80;3.23;;;;;;;;;;5034319;28;20568;-78
2023/12/28 01:33:36;;;;;;;6.80;3.73;;;;;;;;;;5034908;28;20955;-78
2023/12/28 01:36:02;;;;;;;3.60;2.93;;;;;;;;;;5035335;28;20975;-78
2023/12/28 01:38:29;;;;;;;5.93;3.57;;;;;;;;;;5035734;28;20477;-78
2023/12/28 01:40:55;;;;;;;3.33;3.03;;;;;;;;;;5035203;28;20495;-78
2023/12/28 01:43:22;;;;;;;4.53;2.90;;;;;;;;;;5035238;28;20531;-78
2023/12/28 01:45:48;;;;;;;3.90;3.60;;;;;;;;;;5034916;28;20535;-77
2023/12/28 01:48:15;;;;;;;4.33;2.80;;;;;;;;;;5035562;28;20527;-78
2023/12/28 01:50:43;;;;;;;4.40;3.23;;;;;;;;;;5034610;28;21093;-77
2023/12/28 01:53:09;;;;;;;8.07;3.40;;;;;;;;;;5035019;28;20519;-78
2023/12/28 01:55:36;;;;;;;3.30;3.00;;;;;;;;;;5034702;28;20552;-78
2023/12/28 01:58:03;;;;;;;4.70;3.70;;;;;;;;;;5034712;28;20491;-78
2023/12/28 02:00:31;;;;;;;3.27;2.93;;;;;;;;;;5035237;28;20504;-78
2023/12/28 02:02:58;;;;;;;4.37;3.27;;;;;;;;;;5035098;28;20465;-78
2023/12/28 02:05:25;;;;;;;4.40;3.37;;;;;;;;;;5035119;28;20519;-78
2023/12/28 02:07:52;;;;;;;4.10;3.27;;;;;;;;;;5034674;28;21049;-79
2023/12/28 02:10:19;;;;;;;4.33;3.40;;;;;;;;;;5034687;28;20918;-78
2023/12/28 02:12:46;;;;;;;3.80;3.40;;;;;;;;;;5034378;28;21081;-78
2023/12/28 02:15:13;;;;;;;5.63;3.80;;;;;;;;;;5035149;28;20469;-80
2023/12/28 02:17:42;;;;;;;4.87;3.40;;;;;;;;;;5034243;28;20556;-79
2023/12/28 02:20:09;;;;;;;4.50;3.90;;;;;;;;;;5034690;28;20540;-80
2023/12/28 02:22:36;;;;;;;11.50;3.90;;;;;;;;;;5034597;28;21049;-80
2023/12/28 02:25:07;;;;;;;4.20;3.30;;;;;;;;;;5035104;28;20465;-78
2023/12/28 02:27:35;;;;;;;6.37;4.30;;;;;;;;;;5034489;28;20875;-77
2023/12/28 02:30:01;;;;;;;5.53;3.80;;;;;;;;;;5034477;28;20584;-78
2023/12/28 02:32:31;;;;;;;4.00;3.60;;;;;;;;;;5033766;28;20543;-78
2023/12/28 02:35:00;;;;;;;4.47;3.60;;;;;;;;;;5034251;28;20309;-77
2023/12/28 02:37:27;;;;;;;15.30;3.83;;;;;;;;;;5034118;28;20499;-78
2023/12/28 02:39:54;;;;;;;4.10;3.27;;;;;;;;;;5034124;28;20504;-78
2023/12/28 02:42:22;;;;;;;5.00;3.60;;;;;;;;;;5034254;28;20547;-78
2023/12/28 02:44:48;;;;;;;3.77;3.20;;;;;;;;;;5033855;28;21030;-78
2023/12/28 02:47:15;;;;;;;10.70;3.77;;;;;;;;;;5033907;28;20591;-77
2023/12/28 02:49:41;;;;;;;7.30;3.20;;;;;;;;;;5033778;28;20576;-80
2023/12/28 02:52:07;;;;;;;5.90;3.63;;;;;;;;;;5033629;28;21026;-78
2023/12/28 02:54:34;;;;;;;4.00;3.60;;;;;;;;;;5034002;28;20547;-77
2023/12/28 02:57:00;;;;;;;6.20;3.67;;;;;;;;;;5033717;28;21026;-78
2023/12/28 02:59:28;;;;;;;4.93;3.70;;;;;;;;;;5034009;28;20890;-77
2023/12/28 03:01:55;;;;;;;6.93;3.90;;;;;;;;;;5033810;28;20500;-77
2023/12/28 03:04:21;;;;;;;5.40;3.20;;;;;;;;;;5034164;28;20526;-77
2023/12/28 03:06:47;;;;;;;5.77;3.90;;;;;;;;;;5033382;28;20544;-77
2023/12/28 03:09:14;;;;;;;7.13;3.83;;;;;;;;;;5033805;28;20990;-78
2023/12/28 03:11:40;;;;;;;5.33;3.50;;;;;;;;;;5033263;28;20559;-77
2023/12/28 03:14:07;;;;;;;5.03;3.80;;;;;;;;;;5033792;28;20556;-77
2023/12/28 03:16:34;;;;;;;5.60;3.50;;;;;;;;;;5033290;28;20897;-79
2023/12/28 03:19:01;;;;;;;5.70;4.63;;;;;;;;;;5033752;28;20876;-79
2023/12/28 03:21:27;;;;;;;7.70;3.80;;;;;;;;;;5033598;28;20560;-79
2023/12/28 03:23:54;;;;;;;6.83;4.40;;;;;;;;;;5033468;28;20970;-79
2023/12/28 03:26:20;;;;;;;7.63;4.00;;;;;;;;;;5033302;28;20548;-79
2023/12/28 03:28:46;;;;;;;10.80;4.50;;;;;;;;;;5033514;28;20468;-79
2023/12/28 03:31:13;;;;;;;4.47;3.50;;;;;;;;;;5032872;28;20552;-79
2023/12/28 03:33:41;;;;;;;5.53;3.70;;;;;;;;;;5033995;28;20469;-78
2023/12/28 03:36:07;;;;;;;10.67;3.80;;;;;;;;;;5032963;28;20865;-79
2023/12/28 03:38:34;;;;;;;5.60;5.00;;;;;;;;;;5033759;28;20524;-80
2023/12/28 03:41:00;;;;;;;4.33;3.90;;;;;;;;;;5032952;28;20992;-79
2023/12/28 03:43:27;;;;;;;4.20;3.70;;;;;;;;;;5033695;28;20515;-80
2023/12/28 03:45:53;;;;;;;7.70;3.90;;;;;;;;;;5032755;28;21005;-78
2023/12/28 03:48:20;;;;;;;4.40;3.63;;;;;;;;;;5033671;28;20528;-78
2023/12/28 03:50:47;;;;;;;5.87;4.17;;;;;;;;;;5033014;28;20556;-80
2023/12/28 03:53:14;;;;;;;5.33;4.27;;;;;;;;;;5033548;28;20528;-79
2023/12/28 03:55:40;;;;;;;9.27;3.90;;;;;;;;;;5034654;28;20511;-81
2023/12/28 03:58:07;;;;;;;4.57;3.50;;;;;;;;;;5037268;28;20535;-77
2023/12/28 04:00:33;;;;;;;5.87;4.10;;;;;;;;;;5036660;28;20832;-78
2023/12/28 04:02:59;;;;;;;5.33;4.57;;;;;;;;;;5037323;28;20528;-78
2023/12/28 04:05:26;;;;;;;7.63;3.77;;;;;;;;;;5037458;28;20835;-79
2023/12/28 04:07:54;;;;;;;9.40;5.03;;;;;;;;;;5035778;28;20547;-78
2023/12/28 04:10:29;;;;;;;5.30;3.90;;;;;;;;;;5037053;28;21104;-77
2023/12/28 04:12:57;;;;;;;7.67;3.53;;;;;;;;;;5037191;28;20826;-78
2023/12/28 04:15:23;;;;;;;4.80;3.83;;;;;;;;;;5037118;28;20478;-78
2023/12/28 04:17:50;;;;;;;10.53;4.93;;;;;;;;;;5036063;28;20495;-78
2023/12/28 04:20:16;;;;;;;6.47;3.93;;;;;;;;;;5036957;28;20536;-78
2023/12/28 04:22:44;;;;;;;7.23;3.63;;;;;;;;;;5037068;28;20548;-77
2023/12/28 04:25:12;;;;;;;9.33;4.33;;;;;;;;;;5036995;28;20468;-80
2023/12/28 04:27:39;;;;;;;8.27;4.10;;;;;;;;;;5036295;28;20906;-78
2023/12/28 04:30:06;;;;;;;7.77;4.00;;;;;;;;;;5036815;28;20481;-78
2023/12/28 04:32:32;;;;;;;6.60;3.53;;;;;;;;;;5036287;28;20470;-78
2023/12/28 04:34:59;;;;;;;6.93;4.63;;;;;;;;;;5036546;28;20548;-80
2023/12/28 04:37:26;;;;;;;4.20;3.80;;;;;;;;;;5036358;28;20551;-79
2023/12/28 04:39:53;;;;;;;4.20;3.77;;;;;;;;;;5036991;28;20444;-79
2023/12/28 04:42:20;;;;;;;4.30;3.40;;;;;;;;;;5036779;28;20547;-80
2023/12/28 04:44:47;;;;;;;7.47;3.77;;;;;;;;;;5036572;28;20464;-78
2023/12/28 04:47:13;;;;;;;7.17;3.80;;;;;;;;;;5036399;28;20547;-78
2023/12/28 04:49:40;;;;;;;6.50;3.60;;;;;;;;;;5036209;28;20473;-78
2023/12/28 04:52:06;;;;;;;5.43;3.93;;;;;;;;;;5036003;28;20503;-78
2023/12/28 04:54:33;;;;;;;6.47;3.70;;;;;;;;;;5036721;28;20464;-77
2023/12/28 04:56:59;;;;;;;6.53;4.30;;;;;;;;;;5035980;28;20832;-78
2023/12/28 04:59:27;;;;;;;5.27;3.50;;;;;;;;;;5036062;28;20480;-77
2023/12/28 05:01:53;;;;;;;7.60;3.60;;;;;;;;;;5035573;28;21041;-77
2023/12/28 05:04:20;;;;;;;6.10;4.27;;;;;;;;;;5036353;28;20556;-79
2023/12/28 05:06:46;;;;;;;8.93;3.60;;;;;;;;;;5035489;28;20887;-80
2023/12/28 05:09:13;;;;;;;5.17;4.10;;;;;;;;;;5036132;28;20523;-80
2023/12/28 05:11:39;;;;;;;7.00;4.10;;;;;;;;;;5035719;28;20495;-79
2023/12/28 05:14:06;;;;;;;12.23;4.43;;;;;;;;;;5035897;28;20905;-79
2023/12/28 05:16:34;;;;;;;5.00;4.50;;;;;;;;;;5035344;28;20479;-79
2023/12/28 05:19:01;;;;;;;6.47;4.43;;;;;;;;;;5036107;28;20978;-79
2023/12/28 05:21:27;;;;;;;5.27;4.00;;;;;;;;;;5035555;28;20475;-79
2023/12/28 05:23:54;;;;;;;7.43;4.23;;;;;;;;;;5035437;28;20881;-79
2023/12/28 05:26:20;;;;;;;5.17;4.13;;;;;;;;;;5035335;28;20547;-79
2023/12/28 05:28:47;;;;;;;5.23;3.60;;;;;;;;;;5035717;28;20479;-79
2023/12/28 05:31:14;;;;;;;9.60;5.10;;;;;;;;;;5035179;28;20556;-80
2023/12/28 05:33:42;;;;;;;8.70;4.20;;;;;;;;;;5035467;28;20854;-80
2023/12/28 05:36:08;;;;;;;5.13;4.03;;;;;;;;;;5034712;28;21046;-77
2023/12/28 05:38:34;;;;;;;7.83;3.70;;;;;;;;;;5035448;28;20528;-80
2023/12/28 05:41:01;;;;;;;5.60;4.10;;;;;;;;;;5035197;28;20560;-80
2023/12/28 05:43:27;;;;;;;9.53;4.20;;;;;;;;;;5035146;28;21022;-80
2023/12/28 05:45:54;;;;;;;4.83;3.40;;;;;;;;;;5035066;28;20580;-80
2023/12/28 05:48:20;;;;;;;5.07;3.53;;;;;;;;;;5035321;28;20528;-80
2023/12/28 05:50:49;;;;;;;7.53;3.67;;;;;;;;;;5034612;28;20914;-80
2023/12/28 05:53:15;;;;;;;8.90;4.23;;;;;;;;;;5035158;28;20532;-78
2023/12/28 05:55:42;;;;;;;6.40;4.10;;;;;;;;;;5034523;28;20540;-78
2023/12/28 05:58:08;;;;;;;4.40;3.70;;;;;;;;;;5035088;28;20540;-79
2023/12/28 06:00:36;;;;;;;11.20;4.17;;;;;;;;;;5034850;28;20500;-80
2023/12/28 06:03:02;;;;;;;6.33;3.57;;;;;;;;;;5035315;28;20440;-77
2023/12/28 06:05:29;;;;;;;6.40;3.63;;;;;;;;;;5035115;28;20472;-80
2023/12/28 06:07:57;;;;;;;7.50;3.87;;;;;;;;;;5034998;28;20575;-78
2023/12/28 06:10:24;;;;;;;6.60;3.90;;;;;;;;;;5034929;28;20548;-77
2023/12/28 06:12:50;;;;;;;6.40;3.70;;;;;;;;;;5034929;28;20468;-78
2023/12/28 06:15:17;;;;;;;13.70;3.47;;;;;;;;;;5034928;28;20468;-78
2023/12/28 06:17:43;;;;;;;8.37;4.17;;;;;;;;;;5033553;28;20526;-77
2023/12/28 06:20:10;;;;;;;12.43;3.80;;;;;;;;;;5034570;28;20535;-78
2023/12/28 06:22:37;;;;;;;5.90;3.43;;;;;;;;;;5034096;28;21034;-78
2023/12/28 06:25:06;;;;;;;6.90;3.03;;;;;;;;;;5034408;28;20556;-80
2023/12/28 06:27:32;;;;;;;6.17;4.47;;;;;;;;;;5034155;28;20473;-78
2023/12/28 06:29:59;;;;;;;8.70;3.10;;;;;;;;;;5034744;28;20441;-78
2023/12/28 06:32:25;;;;;;;4.73;3.67;;;;;;;;;;5034179;28;20504;-78
2023/12/28 06:34:52;;;;;;;6.30;4.00;;;;;;;;;;5034242;28;20495;-78
2023/12/28 06:37:18;;;;;;;6.73;3.47;;;;;;;;;;5033782;28;21062;-78
2023/12/28 06:39:44;;;;;;;6.43;4.73;;;;;;;;;;5034478;28;20461;-78
2023/12/28 06:42:12;;;;;;;6.23;3.60;;;;;;;;;;5033701;28;20898;-78
2023/12/28 06:44:39;;;;;;;9.80;4.83;;;;;;;;;;5034113;28;20898;-78
2023/12/28 06:47:05;;;;;;;9.07;4.00;;;;;;;;;;5033656;28;20556;-78
2023/12/28 06:49:31;;;;;;;11.80;3.80;;;;;;;;;;5033927;28;20523;-77
2023/12/28 06:51:58;;;;;;;5.47;3.00;;;;;;;;;;5033615;28;20564;-78
2023/12/28 06:54:25;;;;;;;5.20;3.53;;;;;;;;;;5033722;28;20544;-78
2023/12/28 06:56:52;;;;;;;6.73;2.93;;;;;;;;;;5033649;28;20472;-78
2023/12/28 06:59:20;;;;;;;5.30;3.03;;;;;;;;;;5033975;28;20453;-78
2023/12/28 07:01:48;;;;;;;6.17;3.17;;;;;;;;;;5033233;28;20511;-78
2023/12/28 07:04:14;;;;;;;7.13;3.57;;;;;;;;;;5033597;28;21044;-78
2023/12/28 07:06:41;;;;;;;11.33;3.97;;;;;;;;;;5033233;28;21194;-78
2023/12/28 07:09:07;;;;;;;10.80;3.80;;;;;;;;;;5033925;28;20468;-80
2023/12/28 07:11:34;;;;;;;8.03;3.53;;;;;;;;;;5033364;28;20460;-77
2023/12/28 07:14:00;;;;;;;5.73;2.60;;;;;;;;;;5033453;28;20523;-77
2023/12/28 07:16:28;;;;;;;11.97;3.23;;;;;;;;;;5033544;28;20500;-79
2023/12/28 07:18:54;;;;;;;5.70;3.60;;;;;;;;;;5033989;28;20800;-78
2023/12/28 07:21:21;;;;;;;6.70;3.30;;;;;;;;;;5033366;28;20548;-80
2023/12/28 07:23:49;;;;;;;8.00;4.00;;;;;;;;;;5033804;28;20437;-80
2023/12/28 07:26:15;;;;;;;10.87;4.23;;;;;;;;;;5033319;28;20476;-79
2023/12/28 07:28:43;;;;;;;4.70;2.60;;;;;;;;;;5033750;28;20880;-80
2023/12/28 07:31:09;;;;;;;10.00;4.20;;;;;;;;;;5033019;28;20476;-80
2023/12/28 07:33:37;;;;;;;8.07;3.40;;;;;;;;;;5033671;28;20523;-80
2023/12/28 07:36:06;;;;;;;8.67;3.23;;;;;;;;;;5033073;28;20559;-79
2023/12/28 07:38:32;;;;;;;9.27;3.40;;;;;;;;;;5033778;28;20441;-80
2023/12/28 07:40:59;;;;;;;14.43;3.67;;;;;;;;;;5033203;28;20897;-78
2023/12/28 07:43:25;;;;;;;8.20;3.90;;;;;;;;;;5033356;28;20528;-79
2023/12/28 07:45:51;;;;;;;5.80;3.10;;;;;;;;;;5032750;28;20547;-80
2023/12/28 07:48:18;;;;;;;9.43;3.40;;;;;;;;;;5033547;28;20524;-80
2023/12/28 07:50:46;;;;;;;6.57;3.40;;;;;;;;;;5032811;28;20990;-77
2023/12/28 07:53:12;;;;;;;11.80;3.93;;;;;;;;;;5033582;28;20851;-79
2023/12/28 07:55:38;;;;;;;11.43;3.43;;;;;;;;;;5032846;28;20560;-77
2023/12/28 07:58:05;;;;;;;8.07;3.30;;;;;;;;;;5033400;28;20480;-78
2023/12/28 08:00:31;;;;;;;11.97;3.20;;;;;;;;;;5033095;28;20451;-80
2023/12/28 08:02:58;;;;;;;8.40;3.00;;;;;;;;;;5033122;28;20520;-78
2023/12/28 08:05:24;;;;;;;13.60;3.87;;;;;;;;;;5029926;28;20507;-78
2023/12/28 08:07:52;;;;;;;14.43;4.07;;;;;;;;;;5033143;28;20974;-78
2023/12/28 08:10:18;;;;;;;5.83;2.83;;;;;;;;;;5032903;28;20552;-78
2023/12/28 08:12:45;;;;;;;12.70;3.60;;;;;;;;;;5033331;28;20659;-80
2023/12/28 08:15:11;;;;;;;10.63;3.13;;;;;;;;;;5032827;28;20890;-78
2023/12/28 08:17:38;;;;;;;6.40;3.00;;;;;;;;;;5033241;28;20524;-78
2023/12/28 08:20:04;;;;;;;11.03;4.03;;;;;;;;;;5032642;28;20877;-79
2023/12/28 08:22:31;;;;;;;8.30;3.07;;;;;;;;;;5033312;28;20465;-80
2023/12/28 08:24:59;;;;;;;8.67;3.63;;;;;;;;;;5032368;28;21058;-77
2023/12/28 08:27:25;;;;;;;8.27;3.20;;;;;;;;;;5033163;28;20528;-80
2023/12/28 08:29:52;;;;;;;7.23;2.90;;;;;;;;;;5032683;28;20999;-78
2023/12/28 08:32:18;;;;;;;8.27;3.47;;;;;;;;;;5033006;28;20576;-78
2023/12/28 08:34:45;;;;;;;11.73;5.33;;;;;;;;;;5032430;28;20507;-78
2023/12/28 08:37:11;;;;;;;16.73;3.40;;;;;;;;;;5032661;28;20860;-77
2023/12/28 08:39:37;;;;;;;9.10;2.83;;;;;;;;;;5032424;28;20464;-77
2023/12/28 08:42:06;;;;;;;9.63;2.90;;;;;;;;;;5035440;28;20524;-78
2023/12/28 08:44:32;;;;;;;16.20;3.20;;;;;;;;;;5036223;28;20894;-78
2023/12/28 08:46:59;;;;;;;12.43;3.70;;;;;;;;;;5036453;28;20448;-77
2023/12/28 08:49:25;;;;;;;10.83;3.50;;;;;;;;;;5036124;28;20536;-77
2023/12/28 08:51:52;;;;;;;9.20;3.90;;;;;;;;;;5036331;28;20584;-77
2023/12/28 08:54:18;;;;;;;8.53;3.67;;;;;;;;;;5035711;28;21047;-77
2023/12/28 08:56:44;;;;;;;7.10;2.83;;;;;;;;;;5036254;28;20531;-78
2023/12/28 08:59:12;;;;;;;10.53;2.90;;;;;;;;;;5035788;28;20579;-78
2023/12/28 09:01:39;;;;;;;10.60;2.80;;;;;;;;;;5036340;28;20437;-78
2023/12/28 09:04:05;;;;;;;4.90;3.00;;;;;;;;;;5035610;28;20488;-78
2023/12/28 09:06:32;;;;;;;10.23;3.17;;;;;;;;;;5035854;28;20930;-78
2023/12/28 09:08:59;;;;;;;13.23;3.57;;;;;;;;;;5036196;28;20425;-78
2023/12/28 09:11:26;;;;;;;6.47;3.23;;;;;;;;;;5035802;28;20565;-79
2023/12/28 09:13:53;;;;;;;7.80;3.77;;;;;;;;;;5035727;28;20446;-80
2023/12/28 09:16:21;;;;;;;8.73;2.50;;;;;;;;;;5035939;28;20552;-78
2023/12/28 09:18:47;;;;;;;17.60;3.40;;;;;;;;;;5035930;28;20524;-78
2023/12/28 09:21:14;;;;;;;8.13;2.83;;;;;;;;;;5035371;28;20560;-77
2023/12/28 09:23:41;;;;;;;9.13;4.00;;;;;;;;;;5035713;28;20464;-77
2023/12/28 09:26:07;;;;;;;10.70;3.30;;;;;;;;;;5035029;28;20478;-77
2023/12/28 09:28:34;;;;;;;9.67;3.10;;;;;;;;;;5035374;28;20469;-77
2023/12/28 09:31:01;;;;;;;12.03;3.30;;;;;;;;;;5035517;28;21047;-79
2023/12/28 09:33:29;;;;;;;10.17;3.00;;;;;;;;;;5035448;28;20476;-79
2023/12/28 09:35:55;;;;;;;12.13;3.13;;;;;;;;;;5035023;28;20563;-79
2023/12/28 09:38:22;;;;;;;12.20;3.40;;;;;;;;;;5035551;28;20531;-78
2023/12/28 09:40:51;;;;;;;19.60;3.77;;;;;;;;;;5034718;28;20474;-79
2023/12/28 09:43:22;;;;;;;4.83;2.53;;;;;;;;;;5035511;28;20480;-78
2023/12/28 09:45:49;;;;;;;11.43;3.23;;;;;;;;;;5034519;28;20555;-80
2023/12/28 09:48:16;;;;;;;11.20;2.67;;;;;;;;;;5035316;28;20445;-80
2023/12/28 09:50:44;;;;;;;15.87;3.87;;;;;;;;;;5034492;28;20555;-80
2023/12/28 09:53:11;;;;;;;9.23;3.30;;;;;;;;;;5033813;28;20480;-80
2023/12/28 09:55:37;;;;;;;10.50;3.00;;;;;;;;;;5034693;28;20508;-80
2023/12/28 09:58:05;;;;;;;11.80;3.13;;;;;;;;;;5034887;28;20461;-78
2023/12/28 10:00:32;;;;;;;9.03;3.20;;;;;;;;;;5034688;28;20472;-78
2023/12/28 10:02:58;;;;;;;14.03;3.60;;;;;;;;;;5034834;28;20516;-80
2023/12/28 10:05:24;;;;;;;10.23;3.13;;;;;;;;;;5034204;28;20519;-79
2023/12/28 10:07:52;;;;;;;10.97;3.87;;;;;;;;;;5034469;28;20537;-79
2023/12/28 10:10:20;;;;;;;12.10;4.20;;;;;;;;;;5034317;28;20468;-80
2023/12/28 10:12:47;;;;;;;11.43;4.50;;;;;;;;;;5034725;28;20511;-80
2023/12/28 10:15:13;;;;;;;13.27;3.90;;;;;;;;;;5033888;28;20555;-80
2023/12/28 10:17:39;;;;;;;12.27;3.80;;;;;;;;;;5034157;28;20995;-80
2023/12/28 10:20:09;;;;;;;10.67;4.20;;;;;;;;;;5034183;28;20555;-80
2023/12/28 10:22:36;;;;;;;6.53;3.10;;;;;;;;;;5034454;28;20411;-79
2023/12/28 10:25:03;;;;;;;8.60;3.70;;;;;;;;;;5034131;28;20560;-80
2023/12/28 10:27:30;;;;;;;10.90;3.70;;;;;;;;;;5035364;28;20531;-79
2023/12/28 10:29:56;;;;;;;11.50;3.83;;;;;;;;;;5034850;28;21058;-80
2023/12/28 10:32:24;;;;;;;9.67;2.90;;;;;;;;;;5034782;28;20572;-78
2023/12/28 10:34:52;;;;;;;9.20;3.80;;;;;;;;;;5033881;28;20500;-79
2023/12/28 10:37:19;;;;;;;17.47;3.50;;;;;;;;;;5034201;28;20448;-79
2023/12/28 10:39:47;;;;;;;17.00;3.80;;;;;;;;;;5033922;28;20468;-79
2023/12/28 10:42:17;;;;;;;15.30;4.17;;;;;;;;;;5034147;28;20437;-79
2023/12/28 10:44:45;;;;;;;12.17;4.67;;;;;;;;;;5033629;28;20522;-79
2023/12/28 10:47:15;;;;;;;13.03;3.70;;;;;;;;;;5034141;28;20525;-79
2023/12/28 10:49:43;;;;;;;14.57;3.57;;;;;;;;;;5033658;28;20473;-79
2023/12/28 10:52:14;;;;;;;12.43;3.37;;;;;;;;;;5033901;28;20461;-80
2023/12/28 10:54:45;;;;;;;9.97;3.03;;;;;;;;;;5033532;28;20496;-80
2023/12/28 10:57:17;;;;;;;11.63;3.90;;;;;;;;;;5033662;28;20428;-80
2023/12/28 10:59:48;;;;;;;11.80;4.67;;;;;;;;;;5033068;28;20560;-80
2023/12/28 11:02:17;;;;;;;11.93;3.50;;;;;;;;;;5033608;28;20513;-80
2023/12/28 11:04:45;;;;;;;11.43;4.90;;;;;;;;;;5032766;28;21029;-77
2023/12/28 11:07:14;;;;;;;11.23;3.67;;;;;;;;;;5033451;28;20531;-78
2023/12/28 11:09:41;;;;;;;18.80;6.37;;;;;;;;;;5033205;28;20507;-77
2023/12/28 11:12:08;;;;;;;8.07;2.77;;;;;;;;;;5033593;28;20547;-78
2023/12/28 11:14:35;;;;;;;16.03;4.07;;;;;;;;;;5033129;28;20519;-78
2023/12/28 11:17:03;;;;;;;16.50;3.60;;;;;;;;;;5033682;28;20826;-78
2023/12/28 11:19:29;;;;;;;14.80;4.10;;;;;;;;;;5032807;28;20485;-77
2023/12/28 11:21:57;;;;;;;14.30;5.63;;;;;;;;;;5033269;28;20480;-78
2023/12/28 11:24:24;;;;;;;18.10;3.73;;;;;;;;;;5033034;28;20823;-77
2023/12/28 11:26:53;;;;;;;16.53;3.83;;;;;;;;;;5033289;28;20524;-77
2023/12/28 11:29:20;;;;;;;14.23;4.03;;;;;;;;;;5032631;28;20535;-78
2023/12/28 11:31:51;;;;;;;17.17;4.00;;;;;;;;;;5033396;28;20519;-77
2023/12/28 11:34:19;;;;;;;13.00;5.40;;;;;;;;;;5032878;28;20456;-80
2023/12/28 11:36:47;;;;;;;15.27;3.77;;;;;;;;;;5033061;28;20521;-78
2023/12/28 11:39:18;;;;;;;14.23;4.30;;;;;;;;;;5032789;28;20527;-78
2023/12/28 11:41:44;;;;;;;15.30;4.10;;;;;;;;;;5033348;28;20425;-78
2023/12/28 11:44:12;;;;;;;19.83;5.60;;;;;;;;;;5032433;28;20540;-78
2023/12/28 11:46:38;;;;;;;17.30;3.20;;;;;;;;;;5033338;28;20527;-77
2023/12/28 11:49:05;;;;;;;16.60;3.23;;;;;;;;;;5032845;28;20869;-78
2023/12/28 11:51:33;;;;;;;14.17;2.97;;;;;;;;;;5033248;28;20448;-78
2023/12/28 11:54:00;;;;;;;13.37;3.57;;;;;;;;;;5032815;28;20567;-80
2023/12/28 11:56:26;;;;;;;14.23;3.03;;;;;;;;;;5032413;28;20559;-80
2023/12/28 11:58:53;;;;;;;13.33;3.50;;;;;;;;;;5032853;28;20539;-80
2023/12/28 12:01:19;;;;;;;15.37;3.90;;;;;;;;;;5032155;28;21034;-77
2023/12/28 12:03:45;;;;;;;15.20;4.93;;;;;;;;;;5032934;28;20475;-77
2023/12/28 12:06:12;;;;;;;14.57;3.17;;;;;;;;;;5032917;28;20496;-78
2023/12/28 12:08:40;;;;;;;25.27;4.30;;;;;;;;;;5032809;28;20523;-78
2023/12/28 12:11:07;;;;;;;10.10;3.53;;;;;;;;;;5032829;28;20553;-78
2023/12/28 12:13:33;;;;;;;14.90;4.50;;;;;;;;;;5032617;28;21016;-78
2023/12/28 12:16:05;;;;;;;11.37;3.73;;;;;;;;;;5033348;28;20476;-78
2023/12/28 12:18:31;;;;;;;14.67;3.30;;;;;;;;;;5036580;28;20428;-78
2023/12/28 12:20:58;;;;;;;12.80;4.10;;;;;;;;;;5036281;28;20555;-79
2023/12/28 12:23:25;;;;;;;24.27;4.47;;;;;;;;;;5036786;28;20540;-78
2023/12/28 12:25:53;;;;;;;13.70;3.73;;;;;;;;;;5035878;28;20845;-78
2023/12/28 12:28:19;;;;;;;14.53;5.10;;;;;;;;;;5036392;28;21034;-78
2023/12/28 12:30:51;;;;;;;13.17;3.90;;;;;;;;;;5036049;28;20547;-78
2023/12/28 12:33:17;;;;;;;16.80;4.77;;;;;;;;;;5036641;28;20567;-78
2023/12/28 12:35:44;;;;;;;9.70;3.40;;;;;;;;;;5035816;28;20879;-78
2023/12/28 12:38:11;;;;;;;9.17;3.77;;;;;;;;;;5036302;28;20575;-78
2023/12/28 12:40:37;;;;;;;13.37;4.37;;;;;;;;;;5035643;28;20994;-77
2023/12/28 12:43:08;;;;;;;14.93;4.13;;;;;;;;;;5036495;28;20528;-78
2023/12/28 12:45:35;;;;;;;10.97;3.30;;;;;;;;;;5035990;28;21001;-78
2023/12/28 12:48:02;;;;;;;17.70;3.30;;;;;;;;;;5036062;28;21010;-78
2023/12/28 12:50:29;;;;;;;16.27;5.97;;;;;;;;;;5035911;28;21029;-78
2023/12/28 12:52:55;;;;;;;13.63;4.43;;;;;;;;;;5036210;28;20567;-77
2023/12/28 12:55:22;;;;;;;12.67;3.67;;;;;;;;;;5035493;28;20564;-77
2023/12/28 12:57:48;;;;;;;22.20;5.10;;;;;;;;;;5036013;28;20448;-78
2023/12/28 13:00:16;;;;;;;21.43;4.07;;;;;;;;;;5035695;28;21049;-77
2023/12/28 13:02:43;;;;;;;20.40;4.03;;;;;;;;;;5036030;28;20472;-78
2023/12/28 13:05:10;;;;;;;19.83;4.53;;;;;;;;;;5035537;28;20551;-78
2023/12/28 13:07:36;;;;;;;12.27;3.53;;;;;;;;;;5035772;28;20469;-80
2023/12/28 13:10:02;;;;;;;17.23;4.60;;;;;;;;;;5035427;28;20555;-79
2023/12/28 13:12:29;;;;;;;10.73;3.30;;;;;;;;;;5035836;28;20441;-78
2023/12/28 13:14:55;;;;;;;14.13;4.43;;;;;;;;;;5035243;28;20473;-79
2023/12/28 13:17:23;;;;;;;16.23;4.00;;;;;;;;;;5035465;28;20536;-78
2023/12/28 13:19:50;;;;;;;22.73;4.10;;;;;;;;;;5035306;28;20475;-77
2023/12/28 13:22:16;;;;;;;12.37;3.37;;;;;;;;;;5035760;28;20475;-78
2023/12/28 13:24:43;;;;;;;19.40;4.90;;;;;;;;;;5034767;28;20511;-78
2023/12/28 13:27:10;;;;;;;12.60;5.03;;;;;;;;;;5035374;28;20449;-78
2023/12/28 13:29:36;;;;;;;15.70;5.70;;;;;;;;;;5035454;28;20488;-77
2023/12/28 13:32:03;;;;;;;19.50;5.50;;;;;;;;;;5035350;28;20489;-78
2023/12/28 13:34:31;;;;;;;13.20;3.97;;;;;;;;;;5034812;28;20910;-78
2023/12/28 13:36:59;;;;;;;12.90;4.50;;;;;;;;;;5035109;28;21042;-78
2023/12/28 13:39:28;;;;;;;16.03;3.67;;;;;;;;;;5034964;28;20575;-77
2023/12/28 13:41:55;;;;;;;14.60;3.33;;;;;;;;;;5035046;28;20953;-77
2023/12/28 13:44:21;;;;;;;22.37;3.60;;;;;;;;;;5034575;28;20469;-78
2023/12/28 13:46:48;;;;;;;21.53;4.80;;;;;;;;;;5035265;28;20869;-77
2023/12/28 13:49:15;;;;;;;12.70;3.87;;;;;;;;;;5034955;28;20441;-77
2023/12/28 13:51:43;;;;;;;13.10;3.23;;;;;;;;;;5034892;28;20998;-77
2023/12/28 13:54:09;;;;;;;14.30;4.57;;;;;;;;;;5034504;28;20928;-77
2023/12/28 13:56:36;;;;;;;18.33;4.63;;;;;;;;;;5034813;28;20515;-77
2023/12/28 13:59:02;;;;;;;10.20;3.80;;;;;;;;;;5034871;28;20539;-77
2023/12/28 14:01:28;;;;;;;16.40;4.27;;;;;;;;;;5034399;28;20540;-77
2023/12/28 14:03:55;;;;;;;17.13;5.90;;;;;;;;;;5034628;28;20954;-77
2023/12/28 14:06:21;;;;;;;17.20;5.53;;;;;;;;;;5034210;28;20564;-77
2023/12/28 14:08:49;;;;;;;12.73;4.03;;;;;;;;;;5034848;28;20528;-79
2023/12/28 14:11:15;;;;;;;14.93;5.10;;;;;;;;;;5034428;28;20473;-77
2023/12/28 14:13:42;;;;;;;11.60;3.50;;;;;;;;;;5034581;28;20568;-77
2023/12/28 14:16:09;;;;;;;12.33;3.70;;;;;;;;;;5033987;28;20583;-77
2023/12/28 14:18:36;;;;;;;16.43;3.80;;;;;;;;;;5034753;28;20498;-78
2023/12/28 14:21:03;;;;;;;13.30;4.50;;;;;;;;;;5034345;28;20555;-77
2023/12/28 14:23:30;;;;;;;13.03;3.47;;;;;;;;;;5034476;28;20473;-79
2023/12/28 14:25:58;;;;;;;12.80;4.13;;;;;;;;;;5034306;28;20544;-77
2023/12/28 14:28:24;;;;;;;11.67;3.37;;;;;;;;;;5034358;28;20528;-77
2023/12/28 14:30:51;;;;;;;13.83;4.20;;;;;;;;;;5033818;28;20555;-79
2023/12/28 14:33:17;;;;;;;9.80;2.90;;;;;;;;;;5034463;28;20684;-77
2023/12/28 14:35:44;;;;;;;14.27;3.90;;;;;;;;;;5033920;28;20552;-79